sensor_id;sensor_type;location;lat;lon;timestamp;pressure;altitude;pressure_sealevel;temperature;humidity
78685;BME280;68002;52.310;6.990;2023-04-19T00:01:28;102492.38;;;9.87;70.92
78685;BME280;68002;52.310;6.990;2023-04-19T00:03:54;102485.13;;;9.89;70.84
78685;BME280;68002;52.310;6.990;2023-04-19T00:06:19;102491.34;;;9.90;70.73
78685;BME280;68002;52.310;6.990;2023-04-19T00:08:44;102487.25;;;9.84;70.60
78685;BME280;68002;52.310;6.990;2023-04-19T00:11:09;102483.78;;;9.82;70.89
78685;BME280;68002;52.310;6.990;2023-04-19T00:13:35;102488.66;;;9.76;70.57
78685;BME280;68002;52.310;6.990;2023-04-19T00:16:00;102485.41;;;9.71;70.66
78685;BME280;68002;52.310;6.990;2023-04-19T00:18:25;102482.06;;;9.67;70.08
78685;BME280;68002;52.310;6.990;2023-04-19T00:20:51;102481.38;;;9.64;71.01
78685;BME280;68002;52.310;6.990;2023-04-19T00:23:16;102477.38;;;9.57;70.81
78685;BME280;68002;52.310;6.990;2023-04-19T00:25:41;102478.34;;;9.56;70.91
78685;BME280;68002;52.310;6.990;2023-04-19T00:28:06;102469.91;;;9.48;70.71
78685;BME280;68002;52.310;6.990;2023-04-19T00:30:31;102469.13;;;9.46;71.25
78685;BME280;68002;52.310;6.990;2023-04-19T00:32:57;102472.00;;;9.43;71.11
78685;BME280;68002;52.310;6.990;2023-04-19T00:35:22;102472.94;;;9.42;71.25
78685;BME280;68002;52.310;6.990;2023-04-19T00:37:47;102468.91;;;9.35;70.66
78685;BME280;68002;52.310;6.990;2023-04-19T00:40:12;102465.38;;;9.34;70.95
78685;BME280;68002;52.310;6.990;2023-04-19T00:42:38;102473.59;;;9.31;72.08
78685;BME280;68002;52.310;6.990;2023-04-19T00:45:03;102465.56;;;9.31;70.92
78685;BME280;68002;52.310;6.990;2023-04-19T00:47:29;102458.53;;;9.30;71.42
78685;BME280;68002;52.310;6.990;2023-04-19T00:49:54;102457.81;;;9.27;70.78
78685;BME280;68002;52.310;6.990;2023-04-19T00:52:20;102460.00;;;9.20;71.46
78685;BME280;68002;52.310;6.990;2023-04-19T00:54:46;102461.72;;;9.21;70.88
78685;BME280;68002;52.310;6.990;2023-04-19T00:57:13;102453.91;;;9.18;71.71
78685;BME280;68002;52.310;6.990;2023-04-19T00:59:39;102463.03;;;9.14;70.83
78685;BME280;68002;52.310;6.990;2023-04-19T01:02:04;102459.59;;;9.12;72.36
78685;BME280;68002;52.310;6.990;2023-04-19T01:04:29;102462.34;;;9.10;71.50
78685;BME280;68002;52.310;6.990;2023-04-19T01:06:55;102461.53;;;9.10;72.32
78685;BME280;68002;52.310;6.990;2023-04-19T01:09:20;102466.88;;;9.10;72.19
78685;BME280;68002;52.310;6.990;2023-04-19T01:11:45;102464.34;;;9.07;71.92
78685;BME280;68002;52.310;6.990;2023-04-19T01:14:10;102455.66;;;9.03;71.25
78685;BME280;68002;52.310;6.990;2023-04-19T01:16:35;102462.91;;;9.01;72.04
78685;BME280;68002;52.310;6.990;2023-04-19T01:19:01;102454.31;;;8.96;72.46
78685;BME280;68002;52.310;6.990;2023-04-19T01:21:26;102460.50;;;8.97;72.57
78685;BME280;68002;52.310;6.990;2023-04-19T01:23:51;102455.78;;;8.86;72.69
78685;BME280;68002;52.310;6.990;2023-04-19T01:26:17;102460.88;;;8.91;72.41
78685;BME280;68002;52.310;6.990;2023-04-19T01:28:43;102459.16;;;8.90;72.38
78685;BME280;68002;52.310;6.990;2023-04-19T01:31:08;102456.41;;;8.91;71.70
78685;BME280;68002;52.310;6.990;2023-04-19T01:33:33;102458.53;;;8.85;72.12
78685;BME280;68002;52.310;6.990;2023-04-19T01:35:58;102460.19;;;8.87;71.65
78685;BME280;68002;52.310;6.990;2023-04-19T01:38:24;102458.44;;;8.86;71.71
78685;BME280;68002;52.310;6.990;2023-04-19T01:40:49;102458.38;;;8.88;72.48
78685;BME280;68002;52.310;6.990;2023-04-19T01:43:15;102466.97;;;8.93;72.31
78685;BME280;68002;52.310;6.990;2023-04-19T01:45:41;102474.78;;;8.96;72.24
78685;BME280;68002;52.310;6.990;2023-04-19T01:48:06;102469.97;;;9.02;71.93
78685;BME280;68002;52.310;6.990;2023-04-19T01:50:31;102463.88;;;9.00;71.90
78685;BME280;68002;52.310;6.990;2023-04-19T01:52:57;102467.03;;;9.07;71.57
78685;BME280;68002;52.310;6.990;2023-04-19T01:55:23;102467.03;;;9.07;71.12
78685;BME280;68002;52.310;6.990;2023-04-19T01:57:48;102470.81;;;9.03;71.48
78685;BME280;68002;52.310;6.990;2023-04-19T02:00:14;102474.16;;;9.06;71.32
78685;BME280;68002;52.310;6.990;2023-04-19T02:02:40;102476.81;;;9.06;71.14
78685;BME280;68002;52.310;6.990;2023-04-19T02:05:06;102470.81;;;9.03;70.83
78685;BME280;68002;52.310;6.990;2023-04-19T02:07:31;102463.00;;;9.00;70.77
78685;BME280;68002;52.310;6.990;2023-04-19T02:09:56;102464.88;;;8.98;70.47
78685;BME280;68002;52.310;6.990;2023-04-19T02:12:21;102470.03;;;9.01;70.34
78685;BME280;68002;52.310;6.990;2023-04-19T02:14:47;102454.22;;;8.98;69.83
78685;BME280;68002;52.310;6.990;2023-04-19T02:17:12;102461.63;;;8.93;69.88
78685;BME280;68002;52.310;6.990;2023-04-19T02:19:37;102467.06;;;8.91;70.25
78685;BME280;68002;52.310;6.990;2023-04-19T02:22:02;102464.16;;;8.80;70.10
78685;BME280;68002;52.310;6.990;2023-04-19T02:24:27;102469.75;;;8.76;70.24
78685;BME280;68002;52.310;6.990;2023-04-19T02:26:53;102459.34;;;8.71;70.35
78685;BME280;68002;52.310;6.990;2023-04-19T02:29:18;102466.56;;;8.69;69.84
78685;BME280;68002;52.310;6.990;2023-04-19T02:31:44;102461.75;;;8.60;70.45
78685;BME280;68002;52.310;6.990;2023-04-19T02:34:09;102471.66;;;8.58;69.71
78685;BME280;68002;52.310;6.990;2023-04-19T02:36:34;102466.56;;;8.54;70.23
78685;BME280;68002;52.310;6.990;2023-04-19T02:38:59;102466.66;;;8.52;69.95
78685;BME280;68002;52.310;6.990;2023-04-19T02:41:25;102466.94;;;8.48;70.42
78685;BME280;68002;52.310;6.990;2023-04-19T02:43:50;102470.63;;;8.45;70.66
78685;BME280;68002;52.310;6.990;2023-04-19T02:46:15;102467.19;;;8.43;70.01
78685;BME280;68002;52.310;6.990;2023-04-19T02:48:41;102471.50;;;8.46;70.20
78685;BME280;68002;52.310;6.990;2023-04-19T02:51:06;102471.66;;;8.43;70.03
78685;BME280;68002;52.310;6.990;2023-04-19T02:53:31;102472.59;;;8.42;69.82
78685;BME280;68002;52.310;6.990;2023-04-19T02:55:57;102473.38;;;8.44;70.08
78685;BME280;68002;52.310;6.990;2023-04-19T02:58:22;102468.97;;;8.43;69.93
78685;BME280;68002;52.310;6.990;2023-04-19T03:00:47;102470.72;;;8.44;70.29
78685;BME280;68002;52.310;6.990;2023-04-19T03:03:12;102467.78;;;8.48;70.20
78685;BME280;68002;52.310;6.990;2023-04-19T03:05:38;102470.19;;;8.53;69.46
78685;BME280;68002;52.310;6.990;2023-04-19T03:08:03;102471.75;;;8.57;68.93
78685;BME280;68002;52.310;6.990;2023-04-19T03:10:28;102471.47;;;8.61;68.77
78685;BME280;68002;52.310;6.990;2023-04-19T03:12:54;102466.72;;;8.66;69.05
78685;BME280;68002;52.310;6.990;2023-04-19T03:15:19;102468.28;;;8.70;67.77
78685;BME280;68002;52.310;6.990;2023-04-19T03:17:44;102457.72;;;8.69;67.66
78685;BME280;68002;52.310;6.990;2023-04-19T03:20:09;102460.03;;;8.75;65.96
78685;BME280;68002;52.310;6.990;2023-04-19T03:22:35;102464.16;;;8.80;66.59
78685;BME280;68002;52.310;6.990;2023-04-19T03:25:00;102468.63;;;8.80;66.24
78685;BME280;68002;52.310;6.990;2023-04-19T03:27:25;102467.75;;;8.79;64.40
78685;BME280;68002;52.310;6.990;2023-04-19T03:29:50;102464.06;;;8.82;63.46
78685;BME280;68002;52.310;6.990;2023-04-19T03:32:16;102459.31;;;8.87;62.51
78685;BME280;68002;52.310;6.990;2023-04-19T03:34:41;102463.72;;;8.88;63.25
78685;BME280;68002;52.310;6.990;2023-04-19T03:37:06;102466.53;;;8.85;61.46
78685;BME280;68002;52.310;6.990;2023-04-19T03:39:31;102459.31;;;8.87;61.62
78685;BME280;68002;52.310;6.990;2023-04-19T03:41:56;102462.84;;;8.87;61.63
78685;BME280;68002;52.310;6.990;2023-04-19T03:44:22;102470.84;;;8.87;61.43
78685;BME280;68002;52.310;6.990;2023-04-19T03:46:47;102464.06;;;8.82;61.07
78685;BME280;68002;52.310;6.990;2023-04-19T03:49:12;102458.63;;;8.83;61.22
78685;BME280;68002;52.310;6.990;2023-04-19T03:51:37;102460.28;;;8.86;60.24
78685;BME280;68002;52.310;6.990;2023-04-19T03:54:03;102464.06;;;8.82;57.21
78685;BME280;68002;52.310;6.990;2023-04-19T03:56:28;102460.44;;;8.83;58.24
78685;BME280;68002;52.310;6.990;2023-04-19T03:58:53;102463.19;;;8.81;59.14
78685;BME280;68002;52.310;6.990;2023-04-19T04:01:19;102467.75;;;8.79;58.48
78685;BME280;68002;52.310;6.990;2023-04-19T04:03:45;102466.06;;;8.78;58.05
78685;BME280;68002;52.310;6.990;2023-04-19T04:06:10;102463.53;;;8.75;57.40
78685;BME280;68002;52.310;6.990;2023-04-19T04:08:35;102466.28;;;8.74;58.55
78685;BME280;68002;52.310;6.990;2023-04-19T04:11:00;102467.50;;;8.68;58.59
78685;BME280;68002;52.310;6.990;2023-04-19T04:13:25;102468.28;;;8.70;57.59
78685;BME280;68002;52.310;6.990;2023-04-19T04:15:51;102471.38;;;8.63;58.39
78685;BME280;68002;52.310;6.990;2023-04-19T04:18:16;102461.09;;;8.57;57.76
78685;BME280;68002;52.310;6.990;2023-04-19T04:20:42;102477.88;;;8.59;58.25
78685;BME280;68002;52.310;6.990;2023-04-19T04:23:08;102470.97;;;8.55;57.20
78685;BME280;68002;52.310;6.990;2023-04-19T04:25:33;102473.97;;;8.49;57.26
78685;BME280;68002;52.310;6.990;2023-04-19T04:27:58;102473.53;;;8.41;57.58
78685;BME280;68002;52.310;6.990;2023-04-19T04:30:23;102482.72;;;8.35;56.71
78685;BME280;68002;52.310;6.990;2023-04-19T04:32:48;102479.00;;;8.22;54.55
78685;BME280;68002;52.310;6.990;2023-04-19T04:35:14;102484.91;;;8.11;56.08
78685;BME280;68002;52.310;6.990;2023-04-19T04:37:39;102491.59;;;8.03;55.00
78685;BME280;68002;52.310;6.990;2023-04-19T04:40:04;102484.50;;;7.86;53.59
78685;BME280;68002;52.310;6.990;2023-04-19T04:42:30;102487.16;;;7.86;53.80
78685;BME280;68002;52.310;6.990;2023-04-19T04:44:55;102495.66;;;7.77;54.98
78685;BME280;68002;52.310;6.990;2023-04-19T04:47:20;102497.94;;;7.68;55.16
78685;BME280;68002;52.310;6.990;2023-04-19T04:49:46;102498.25;;;7.62;54.76
78685;BME280;68002;52.310;6.990;2023-04-19T04:52:11;102503.03;;;7.55;55.38
78685;BME280;68002;52.310;6.990;2023-04-19T04:54:36;102484.66;;;7.34;54.36
78685;BME280;68002;52.310;6.990;2023-04-19T04:57:01;102500.53;;;7.35;54.85
78685;BME280;68002;52.310;6.990;2023-04-19T04:59:27;102501.88;;;7.27;55.46
78685;BME280;68002;52.310;6.990;2023-04-19T05:01:52;102499.44;;;7.22;55.30
78685;BME280;68002;52.310;6.990;2023-04-19T05:04:18;102506.00;;;7.15;55.17
78685;BME280;68002;52.310;6.990;2023-04-19T05:06:43;102513.13;;;7.14;55.50
78685;BME280;68002;52.310;6.990;2023-04-19T05:09:08;102488.00;;;7.03;55.46
78685;BME280;68002;52.310;6.990;2023-04-19T05:11:34;102511.53;;;7.10;55.15
78685;BME280;68002;52.310;6.990;2023-04-19T05:13:59;102508.16;;;7.07;55.41
78685;BME280;68002;52.310;6.990;2023-04-19T05:16:25;102511.00;;;7.04;55.06
78685;BME280;68002;52.310;6.990;2023-04-19T05:18:50;102515.94;;;7.11;55.89
78685;BME280;68002;52.310;6.990;2023-04-19T05:21:16;102519.22;;;7.17;55.30
78685;BME280;68002;52.310;6.990;2023-04-19T05:23:41;102523.69;;;7.16;55.67
78685;BME280;68002;52.310;6.990;2023-04-19T05:26:06;102533.31;;;7.19;55.12
78685;BME280;68002;52.310;6.990;2023-04-19T05:28:31;102529.75;;;7.20;55.39
78685;BME280;68002;52.310;6.990;2023-04-19T05:30:57;102510.16;;;7.21;55.32
78685;BME280;68002;52.310;6.990;2023-04-19T05:33:22;102519.47;;;7.29;55.30
78685;BME280;68002;52.310;6.990;2023-04-19T05:35:47;102521.28;;;7.46;55.52
78685;BME280;68002;52.310;6.990;2023-04-19T05:38:12;102514.94;;;7.48;54.60
78685;BME280;68002;52.310;6.990;2023-04-19T05:40:37;102521.50;;;7.58;54.59
78685;BME280;68002;52.310;6.990;2023-04-19T05:43:03;102510.03;;;7.58;54.79
78685;BME280;68002;52.310;6.990;2023-04-19T05:45:28;102530.06;;;7.82;54.56
78685;BME280;68002;52.310;6.990;2023-04-19T05:47:53;102523.38;;;7.90;54.21
78685;BME280;68002;52.310;6.990;2023-04-19T05:50:18;102519.44;;;7.97;54.01
78685;BME280;68002;52.310;6.990;2023-04-19T05:52:43;102521.38;;;8.11;54.45
78685;BME280;68002;52.310;6.990;2023-04-19T05:55:09;102525.56;;;8.32;54.46
78685;BME280;68002;52.310;6.990;2023-04-19T05:57:34;102514.41;;;8.41;53.55
78685;BME280;68002;52.310;6.990;2023-04-19T05:59:59;102526.53;;;8.47;52.36
78685;BME280;68002;52.310;6.990;2023-04-19T06:02:24;102526.25;;;8.36;52.46
78685;BME280;68002;52.310;6.990;2023-04-19T06:04:50;102519.03;;;8.38;52.08
78685;BME280;68002;52.310;6.990;2023-04-19T06:07:15;102527.50;;;8.46;51.97
78685;BME280;68002;52.310;6.990;2023-04-19T06:09:40;102534.63;;;8.61;52.89
78685;BME280;68002;52.310;6.990;2023-04-19T06:12:05;102521.56;;;8.87;52.48
78685;BME280;68002;52.310;6.990;2023-04-19T06:14:30;102532.88;;;9.06;50.79
78685;BME280;68002;52.310;6.990;2023-04-19T06:16:56;102524.63;;;9.11;50.41
78685;BME280;68002;52.310;6.990;2023-04-19T06:19:21;102530.44;;;9.33;51.46
78685;BME280;68002;52.310;6.990;2023-04-19T06:21:46;102528.25;;;9.40;48.58
78685;BME280;68002;52.310;6.990;2023-04-19T06:24:12;102525.09;;;9.63;50.85
78685;BME280;68002;52.310;6.990;2023-04-19T06:26:37;102525.13;;;9.77;48.84
78685;BME280;68002;52.310;6.990;2023-04-19T06:29:02;102528.47;;;9.80;48.21
78685;BME280;68002;52.310;6.990;2023-04-19T06:31:27;102515.25;;;9.63;48.85
78685;BME280;68002;52.310;6.990;2023-04-19T06:33:53;102529.22;;;9.68;48.04
78685;BME280;68002;52.310;6.990;2023-04-19T06:36:18;102523.53;;;9.88;48.73
78685;BME280;68002;52.310;6.990;2023-04-19T06:38:43;102530.00;;;9.98;48.50
78685;BME280;68002;52.310;6.990;2023-04-19T06:41:09;102532.56;;;9.86;47.84
78685;BME280;68002;52.310;6.990;2023-04-19T06:43:34;102532.00;;;9.81;47.82
78685;BME280;68002;52.310;6.990;2023-04-19T06:46:00;102529.81;;;9.87;48.96
78685;BME280;68002;52.310;6.990;2023-04-19T06:48:26;102535.69;;;10.22;49.03
78685;BME280;68002;52.310;6.990;2023-04-19T06:50:51;102525.34;;;10.44;48.20
78685;BME280;68002;52.310;6.990;2023-04-19T06:53:16;102520.84;;;10.59;48.19
78685;BME280;68002;52.310;6.990;2023-04-19T06:55:41;102524.78;;;10.67;46.76
78685;BME280;68002;52.310;6.990;2023-04-19T06:58:06;102527.19;;;10.84;46.70
78685;BME280;68002;52.310;6.990;2023-04-19T07:00:32;102528.75;;;11.15;47.48
78685;BME280;68002;52.310;6.990;2023-04-19T07:02:57;102531.09;;;11.20;45.49
78685;BME280;68002;52.310;6.990;2023-04-19T07:05:22;102522.28;;;11.32;45.96
78685;BME280;68002;52.310;6.990;2023-04-19T07:07:47;102514.75;;;11.24;43.30
78685;BME280;68002;52.310;6.990;2023-04-19T07:10:13;102522.63;;;11.13;44.42
78685;BME280;68002;52.310;6.990;2023-04-19T07:12:38;102516.94;;;11.18;44.14
78685;BME280;68002;52.310;6.990;2023-04-19T07:15:03;102519.53;;;11.58;43.36
78685;BME280;68002;52.310;6.990;2023-04-19T07:17:28;102528.22;;;11.62;42.19
78685;BME280;68002;52.310;6.990;2023-04-19T07:19:54;102513.34;;;11.70;41.65
78685;BME280;68002;52.310;6.990;2023-04-19T07:22:19;102517.47;;;11.88;42.71
78685;BME280;68002;52.310;6.990;2023-04-19T07:24:44;102510.59;;;11.84;42.82
78685;BME280;68002;52.310;6.990;2023-04-19T07:27:09;102522.06;;;11.86;41.65
78685;BME280;68002;52.310;6.990;2023-04-19T07:29:35;102512.50;;;12.07;42.01
78685;BME280;68002;52.310;6.990;2023-04-19T07:32:01;102515.66;;;12.14;41.67
78685;BME280;68002;52.310;6.990;2023-04-19T07:34:27;102515.63;;;12.27;41.66
78685;BME280;68002;52.310;6.990;2023-04-19T07:36:52;102498.97;;;12.34;40.04
78685;BME280;68002;52.310;6.990;2023-04-19T07:39:17;102507.91;;;12.09;41.30
78685;BME280;68002;52.310;6.990;2023-04-19T07:41:43;102507.34;;;12.30;40.15
78685;BME280;68002;52.310;6.990;2023-04-19T07:44:09;102493.50;;;12.36;40.10
78685;BME280;68002;52.310;6.990;2023-04-19T07:46:34;102502.47;;;12.60;40.57
78685;BME280;68002;52.310;6.990;2023-04-19T07:48:59;102497.69;;;12.76;40.79
78685;BME280;68002;52.310;6.990;2023-04-19T07:51:24;102492.63;;;12.71;39.95
78685;BME280;68002;52.310;6.990;2023-04-19T07:53:49;102499.13;;;12.92;38.49
78685;BME280;68002;52.310;6.990;2023-04-19T07:56:15;102486.41;;;13.07;38.26
78685;BME280;68002;52.310;6.990;2023-04-19T07:58:40;102489.44;;;13.02;38.23
78685;BME280;68002;52.310;6.990;2023-04-19T08:01:05;102487.34;;;13.30;38.55
78685;BME280;68002;52.310;6.990;2023-04-19T08:03:32;102483.97;;;13.39;37.88
78685;BME280;68002;52.310;6.990;2023-04-19T08:06:00;102492.00;;;13.04;37.99
78685;BME280;68002;52.310;6.990;2023-04-19T08:08:26;102485.31;;;13.09;37.90
78685;BME280;68002;52.310;6.990;2023-04-19T08:10:52;102477.22;;;13.22;37.12
78685;BME280;68002;52.310;6.990;2023-04-19T08:13:17;102482.13;;;13.39;37.60
78685;BME280;68002;52.310;6.990;2023-04-19T08:15:42;102481.47;;;13.59;37.09
78685;BME280;68002;52.310;6.990;2023-04-19T08:18:07;102477.91;;;13.59;37.43
78685;BME280;68002;52.310;6.990;2023-04-19T08:20:33;102475.19;;;14.04;37.04
78685;BME280;68002;52.310;6.990;2023-04-19T08:22:59;102478.84;;;14.14;35.85
78685;BME280;68002;52.310;6.990;2023-04-19T08:25:24;102480.81;;;14.46;35.53
78685;BME280;68002;52.310;6.990;2023-04-19T08:27:50;102468.84;;;14.39;35.81
78685;BME280;68002;52.310;6.990;2023-04-19T08:30:15;102470.91;;;14.57;35.92
78685;BME280;68002;52.310;6.990;2023-04-19T08:32:40;102470.31;;;14.85;34.98
78685;BME280;68002;52.310;6.990;2023-04-19T08:35:06;102462.72;;;14.48;33.73
78685;BME280;68002;52.310;6.990;2023-04-19T08:37:31;102473.47;;;14.59;33.65
78685;BME280;68002;52.310;6.990;2023-04-19T08:39:56;102471.88;;;14.12;34.05
78685;BME280;68002;52.310;6.990;2023-04-19T08:42:21;102471.00;;;14.67;35.34
78685;BME280;68002;52.310;6.990;2023-04-19T08:44:47;102457.25;;;14.81;32.72
78685;BME280;68002;52.310;6.990;2023-04-19T08:47:13;102468.50;;;14.86;33.02
78685;BME280;68002;52.310;6.990;2023-04-19T08:49:39;102459.66;;;14.95;32.44
78685;BME280;68002;52.310;6.990;2023-04-19T08:52:08;102459.59;;;14.63;32.14
78685;BME280;68002;52.310;6.990;2023-04-19T08:54:37;102469.97;;;14.90;32.07
78685;BME280;68002;52.310;6.990;2023-04-19T08:57:03;102450.38;;;14.88;31.31
78685;BME280;68002;52.310;6.990;2023-04-19T08:59:29;102450.00;;;14.28;31.06
78685;BME280;68002;52.310;6.990;2023-04-19T09:01:54;102452.19;;;14.56;32.96
78685;BME280;68002;52.310;6.990;2023-04-19T09:04:19;102454.13;;;15.28;31.44
78685;BME280;68002;52.310;6.990;2023-04-19T09:06:44;102449.81;;;15.57;30.56
78685;BME280;68002;52.310;6.990;2023-04-19T09:09:24;102437.41;;;15.45;30.69
78685;BME280;68002;52.310;6.990;2023-04-19T09:11:50;102455.03;;;15.18;30.54
78685;BME280;68002;52.310;6.990;2023-04-19T09:14:16;102448.09;;;15.36;31.59
78685;BME280;68002;52.310;6.990;2023-04-19T09:16:43;102450.75;;;15.67;30.69
78685;BME280;68002;52.310;6.990;2023-04-19T09:19:09;102438.16;;;15.77;30.33
78685;BME280;68002;52.310;6.990;2023-04-19T09:21:34;102425.66;;;16.06;29.19
78685;BME280;68002;52.310;6.990;2023-04-19T09:24:01;102435.19;;;16.10;29.20
78685;BME280;68002;52.310;6.990;2023-04-19T09:26:27;102421.50;;;16.33;28.18
78685;BME280;68002;52.310;6.990;2023-04-19T09:29:00;102431.56;;;16.80;28.68
78685;BME280;68002;52.310;6.990;2023-04-19T09:31:27;102413.28;;;16.44;26.58
78685;BME280;68002;52.310;6.990;2023-04-19T09:33:53;102420.16;;;16.48;27.66
78685;BME280;68002;52.310;6.990;2023-04-19T09:36:32;102424.75;;;16.95;26.55
78685;BME280;68002;52.310;6.990;2023-04-19T09:38:58;102421.31;;;16.83;25.61
78685;BME280;68002;52.310;6.990;2023-04-19T09:41:25;102411.41;;;17.03;26.04
78685;BME280;68002;52.310;6.990;2023-04-19T09:43:51;102409.22;;;17.26;25.66
78685;BME280;68002;52.310;6.990;2023-04-19T09:46:34;102418.47;;;17.33;26.25
78685;BME280;68002;52.310;6.990;2023-04-19T09:49:19;102400.34;;;17.71;24.67
78685;BME280;68002;52.310;6.990;2023-04-19T09:51:55;102402.09;;;17.53;23.28
78685;BME280;68002;52.310;6.990;2023-04-19T09:54:22;102389.09;;;17.66;24.11
78685;BME280;68002;52.310;6.990;2023-04-19T09:56:48;102404.69;;;17.26;23.17
78685;BME280;68002;52.310;6.990;2023-04-19T09:59:14;102407.13;;;17.10;23.61
78685;BME280;68002;52.310;6.990;2023-04-19T10:01:53;102401.00;;;16.70;23.27
78685;BME280;68002;52.310;6.990;2023-04-19T10:04:20;102393.75;;;16.89;23.85
78685;BME280;68002;52.310;6.990;2023-04-19T10:06:45;102407.53;;;17.15;22.80
78685;BME280;68002;52.310;6.990;2023-04-19T10:09:12;102405.81;;;17.33;22.43
78685;BME280;68002;52.310;6.990;2023-04-19T10:11:37;102389.53;;;17.62;23.57
78685;BME280;68002;52.310;6.990;2023-04-19T10:14:07;102385.56;;;17.47;22.85
78685;BME280;68002;52.310;6.990;2023-04-19T10:16:34;102383.63;;;17.85;22.83
78685;BME280;68002;52.310;6.990;2023-04-19T10:19:01;102377.00;;;17.70;23.71
78685;BME280;68002;52.310;6.990;2023-04-19T10:21:27;102379.84;;;17.69;24.13
78685;BME280;68002;52.310;6.990;2023-04-19T10:23:54;102368.16;;;18.05;22.57
78685;BME280;68002;52.310;6.990;2023-04-19T10:26:20;102374.78;;;18.20;22.89
78685;BME280;68002;52.310;6.990;2023-04-19T10:28:46;102373.38;;;18.34;23.49
78685;BME280;68002;52.310;6.990;2023-04-19T10:31:11;102357.81;;;18.18;24.12
78685;BME280;68002;52.310;6.990;2023-04-19T10:33:37;102350.22;;;18.22;23.63
78685;BME280;68002;52.310;6.990;2023-04-19T10:36:03;102352.25;;;18.37;22.91
78685;BME280;68002;52.310;6.990;2023-04-19T10:38:41;102333.97;;;17.67;23.28
78685;BME280;68002;52.310;6.990;2023-04-19T10:41:07;102342.19;;;17.75;24.07
78685;BME280;68002;52.310;6.990;2023-04-19T10:43:33;102330.16;;;17.51;23.73
78685;BME280;68002;52.310;6.990;2023-04-19T10:46:08;102343.47;;;18.08;23.13
78685;BME280;68002;52.310;6.990;2023-04-19T10:48:36;102326.31;;;17.90;23.62
78685;BME280;68002;52.310;6.990;2023-04-19T10:56:13;102310.59;;;18.21;22.98
78685;BME280;68002;52.310;6.990;2023-04-19T11:01:38;102302.13;;;18.68;23.65
78685;BME280;68002;52.310;6.990;2023-04-19T11:04:05;102287.91;;;18.92;23.08
78685;BME280;68002;52.310;6.990;2023-04-19T11:06:31;102283.72;;;19.23;22.31
78685;BME280;68002;52.310;6.990;2023-04-19T11:08:56;102283.72;;;19.82;21.13
78685;BME280;68002;52.310;6.990;2023-04-19T11:11:21;102279.84;;;19.51;20.95
78685;BME280;68002;52.310;6.990;2023-04-19T11:13:47;102282.03;;;19.22;20.75
78685;BME280;68002;52.310;6.990;2023-04-19T11:16:12;102274.31;;;19.61;21.63
78685;BME280;68002;52.310;6.990;2023-04-19T11:18:37;102264.03;;;19.47;20.61
78685;BME280;68002;52.310;6.990;2023-04-19T11:21:04;102260.34;;;19.48;20.58
78685;BME280;68002;52.310;6.990;2023-04-19T11:23:29;102260.50;;;19.46;19.34
78685;BME280;68002;52.310;6.990;2023-04-19T11:25:54;102256.63;;;19.57;20.24
78685;BME280;68002;52.310;6.990;2023-04-19T11:28:20;102266.41;;;19.75;20.07
78685;BME280;68002;52.310;6.990;2023-04-19T11:30:45;102253.38;;;19.95;20.28
78685;BME280;68002;52.310;6.990;2023-04-19T11:33:11;102260.22;;;20.15;20.25
78685;BME280;68002;52.310;6.990;2023-04-19T11:35:36;102251.22;;;20.15;19.91
78685;BME280;68002;52.310;6.990;2023-04-19T11:38:02;102248.06;;;19.77;20.57
78685;BME280;68002;52.310;6.990;2023-04-19T11:40:27;102238.28;;;20.00;20.89
78685;BME280;68002;52.310;6.990;2023-04-19T11:42:54;102230.03;;;20.42;20.40
78685;BME280;68002;52.310;6.990;2023-04-19T11:45:34;102223.44;;;20.69;19.16
78685;BME280;68002;52.310;6.990;2023-04-19T11:47:59;102234.97;;;20.23;18.79
78685;BME280;68002;52.310;6.990;2023-04-19T11:50:42;102236.44;;;19.51;18.95
78685;BME280;68002;52.310;6.990;2023-04-19T11:53:12;102229.97;;;19.94;20.37
78685;BME280;68002;52.310;6.990;2023-04-19T11:55:41;102235.19;;;19.79;20.91
78685;BME280;68002;52.310;6.990;2023-04-19T11:58:06;102237.50;;;19.66;20.88
78685;BME280;68002;52.310;6.990;2023-04-19T12:00:32;102226.34;;;19.85;21.03
78685;BME280;68002;52.310;6.990;2023-04-19T12:02:58;102227.44;;;20.17;21.21
78685;BME280;68002;52.310;6.990;2023-04-19T12:05:23;102215.94;;;20.23;21.65
78685;BME280;68002;52.310;6.990;2023-04-19T12:10:23;102217.31;;;20.51;21.40
78685;BME280;68002;52.310;6.990;2023-04-19T12:12:48;102215.94;;;20.23;20.94
78685;BME280;68002;52.310;6.990;2023-04-19T12:15:13;102216.28;;;20.36;21.58
78685;BME280;68002;52.310;6.990;2023-04-19T12:17:58;102229.13;;;20.10;21.91
78685;BME280;68002;52.310;6.990;2023-04-19T12:20:34;102218.75;;;19.97;21.30
78685;BME280;68002;52.310;6.990;2023-04-19T12:22:59;102221.41;;;20.31;21.48
78685;BME280;68002;52.310;6.990;2023-04-19T12:25:32;102212.19;;;20.80;20.76
78685;BME280;68002;52.310;6.990;2023-04-19T12:28:04;102197.09;;;20.53;21.00
78685;BME280;68002;52.310;6.990;2023-04-19T12:30:29;102202.53;;;20.61;20.82
78685;BME280;68002;52.310;6.990;2023-04-19T12:32:55;102182.31;;;20.48;21.15
78685;BME280;68002;52.310;6.990;2023-04-19T12:35:24;102187.22;;;20.60;21.90
78685;BME280;68002;52.310;6.990;2023-04-19T12:37:51;102193.47;;;21.01;21.47
78685;BME280;68002;52.310;6.990;2023-04-19T12:40:16;102184.97;;;20.88;20.91
78685;BME280;68002;52.310;6.990;2023-04-19T12:42:41;102181.94;;;20.75;20.96
78685;BME280;68002;52.310;6.990;2023-04-19T12:45:07;102172.72;;;19.87;20.89
78685;BME280;68002;52.310;6.990;2023-04-19T12:47:32;102173.28;;;20.15;22.18
78685;BME280;68002;52.310;6.990;2023-04-19T12:49:58;102178.19;;;20.84;22.45
78685;BME280;68002;52.310;6.990;2023-04-19T12:52:23;102178.50;;;21.05;21.31
78685;BME280;68002;52.310;6.990;2023-04-19T12:54:48;102165.94;;;21.43;22.32
78685;BME280;68002;52.310;6.990;2023-04-19T12:57:13;102169.22;;;21.30;21.06
78685;BME280;68002;52.310;6.990;2023-04-19T12:59:39;102156.91;;;20.95;21.43